EZY17LC EGKK-LGSK
Flight info
| Callsign | EZY17LC |
|---|---|
| Flight time | N/A |
| Altitude | 35000 |
| Route | MIMFO Y312 DVR UL9 KONAN UL607 REMBA DCT LIRSU DCT ULNOK DCT VIBOM DCT NOMBO DCT RIDAR DCT RADIZ DCT NEMEK DCT ETOBI DCT MEDUX UM867 KOGAT DCT ERANA UL737 TSL UL617 IBIDI |
| Aircraft | A21N/M-SDE3FGHIRWY/LB1 |
Departure
| Time | 2026-04-15 14:31 |
|---|---|
| Airport | London Gatwick Airport (EGKK) |
Arrival
| Time | N/A |
|---|---|
| Airport | Skiathos Island National Airport (LGSK) |
| Time | Latitude | Longitude | Altitude | Speed | Heading |
|---|---|---|---|---|---|
| 2026-04-15 14:01 | 51.15600 | -0.17562 | 204 ft | 0 kts | 329° |
| 2026-04-15 14:23 | 51.15593 | -0.17555 | 204 ft | 3 kts | 329° |
| 2026-04-15 14:23 | 51.15574 | -0.17537 | 214 ft | 3 kts | 329° |
| 2026-04-15 14:23 | 51.15556 | -0.17521 | 215 ft | 3 kts | 346° |
| 2026-04-15 14:23 | 51.15540 | -0.17521 | 212 ft | 3 kts | 49° |
| 2026-04-15 14:24 | 51.15532 | -0.17545 | 215 ft | 2 kts | 77° |
| 2026-04-15 14:24 | 51.15528 | -0.17578 | 213 ft | 3 kts | 77° |
| 2026-04-15 14:24 | 51.15527 | -0.17582 | 213 ft | 0 kts | 77° |
| 2026-04-15 14:27 | 51.15536 | -0.17521 | 212 ft | 12 kts | 77° |
| 2026-04-15 14:27 | 51.15527 | -0.17435 | 213 ft | 6 kts | 143° |
| 2026-04-15 14:27 | 51.15487 | -0.17417 | 204 ft | 6 kts | 167° |
| 2026-04-15 14:27 | 51.15435 | -0.17399 | 208 ft | 13 kts | 168° |
| 2026-04-15 14:28 | 51.15349 | -0.17370 | 206 ft | 11 kts | 168° |
| 2026-04-15 14:28 | 51.15270 | -0.17338 | 208 ft | 13 kts | 155° |
| 2026-04-15 14:28 | 51.15254 | -0.17174 | 207 ft | 19 kts | 77° |
| 2026-04-15 14:28 | 51.15277 | -0.17006 | 211 ft | 14 kts | 77° |
| 2026-04-15 14:29 | 51.15292 | -0.16894 | 212 ft | 5 kts | 78° |
| 2026-04-15 14:29 | 51.15280 | -0.16832 | 207 ft | 8 kts | 128° |
| 2026-04-15 14:29 | 51.15234 | -0.16806 | 214 ft | 7 kts | 173° |
| 2026-04-15 14:29 | 51.15178 | -0.16793 | 203 ft | 9 kts | 172° |
| 2026-04-15 14:30 | 51.15123 | -0.16821 | 211 ft | 9 kts | 246° |
| 2026-04-15 14:30 | 51.15106 | -0.16903 | 208 ft | 5 kts | 257° |
| 2026-04-15 14:30 | 51.15082 | -0.17080 | 208 ft | 44 kts | 258° |
| 2026-04-15 14:30 | 51.14968 | -0.17898 | 210 ft | 105 kts | 257° |
| 2026-04-15 14:31 | 51.14779 | -0.19272 | 210 ft | 150 kts | 257° |
| 2026-04-15 14:31 | 51.14538 | -0.20958 | 661 ft | 154 kts | 253° |
| 2026-04-15 14:31 | 51.14308 | -0.22608 | 1387 ft | 151 kts | 251° |
| 2026-04-15 14:31 | 51.14092 | -0.24238 | 2006 ft | 150 kts | 252° |
| 2026-04-15 14:32 | 51.13863 | -0.25940 | 2244 ft | 170 kts | 252° |
| 2026-04-15 14:32 | 51.13591 | -0.27925 | 2724 ft | 192 kts | 252° |
| 2026-04-15 14:32 | 51.13333 | -0.30053 | 3274 ft | 199 kts | 259° |
| 2026-04-15 14:32 | 51.13472 | -0.32307 | 3849 ft | 212 kts | 279° |
| 2026-04-15 14:33 | 51.14178 | -0.34447 | 4423 ft | 228 kts | 301° |
| 2026-04-15 14:33 | 51.15445 | -0.36083 | 5004 ft | 245 kts | 325° |
| 2026-04-15 14:33 | 51.17156 | -0.36794 | 5397 ft | 270 kts | 353° |
| 2026-04-15 14:33 | 51.18448 | -0.36527 | 5621 ft | 287 kts | 13° |
| 2026-04-15 14:34 | 51.20516 | -0.33972 | 6563 ft | 282 kts | 62° |
| 2026-04-15 14:34 | 51.21068 | -0.31058 | 7148 ft | 272 kts | 95° |
| 2026-04-15 14:34 | 51.20839 | -0.28129 | 7677 ft | 265 kts | 108° |
| 2026-04-15 14:34 | 51.20490 | -0.25230 | 8222 ft | 267 kts | 109° |
| 2026-04-15 14:35 | 51.20193 | -0.22292 | 8756 ft | 274 kts | 98° |
| 2026-04-15 14:35 | 51.20424 | -0.19202 | 9140 ft | 291 kts | 85° |
| 2026-04-15 14:35 | 51.20825 | -0.15898 | 9339 ft | 313 kts | 83° |
| 2026-04-15 14:35 | 51.21283 | -0.12459 | 9885 ft | 320 kts | 82° |
| 2026-04-15 14:36 | 51.21769 | -0.08953 | 10299 ft | 333 kts | 82° |
| 2026-04-15 14:36 | 51.22281 | -0.05226 | 10430 ft | 354 kts | 82° |
| 2026-04-15 14:36 | 51.22807 | -0.01324 | 10564 ft | 374 kts | 82° |
| 2026-04-15 14:36 | 51.23355 | 0.02790 | 10834 ft | 382 kts | 82° |
| 2026-04-15 14:37 | 51.23902 | 0.06951 | 11385 ft | 386 kts | 82° |
| 2026-04-15 14:37 | 51.24449 | 0.11172 | 11972 ft | 389 kts | 82° |
| 2026-04-15 14:37 | 51.24995 | 0.15414 | 12551 ft | 392 kts | 83° |
| 2026-04-15 14:37 | 51.25337 | 0.19723 | 13112 ft | 390 kts | 93° |
| 2026-04-15 14:38 | 51.25212 | 0.24033 | 13668 ft | 388 kts | 103° |
| 2026-04-15 14:38 | 51.24879 | 0.28314 | 14191 ft | 390 kts | 103° |
| 2026-04-15 14:38 | 51.24545 | 0.32629 | 14722 ft | 392 kts | 103° |
| 2026-04-15 14:38 | 51.24213 | 0.36955 | 15284 ft | 394 kts | 103° |
| 2026-04-15 14:39 | 51.23991 | 0.39846 | 15656 ft | 396 kts | 103° |
| 2026-04-15 14:39 | 51.23655 | 0.44220 | 16218 ft | 399 kts | 103° |
| 2026-04-15 14:39 | 51.23315 | 0.48631 | 16702 ft | 401 kts | 103° |
| 2026-04-15 14:39 | 51.22973 | 0.53054 | 17232 ft | 403 kts | 103° |
| 2026-04-15 14:40 | 51.22629 | 0.57502 | 17782 ft | 405 kts | 103° |
| 2026-04-15 14:40 | 51.22174 | 0.63436 | 18442 ft | 408 kts | 103° |
| 2026-04-15 14:40 | 51.21938 | 0.66478 | 18768 ft | 409 kts | 104° |
| 2026-04-15 14:40 | 51.21583 | 0.70992 | 19236 ft | 411 kts | 104° |
| 2026-04-15 14:41 | 51.21223 | 0.75527 | 19704 ft | 413 kts | 104° |
| 2026-04-15 14:41 | 51.20859 | 0.80090 | 20170 ft | 415 kts | 104° |
| 2026-04-15 14:41 | 51.20493 | 0.84616 | 20664 ft | 417 kts | 104° |
| 2026-04-15 14:41 | 51.20119 | 0.89214 | 21120 ft | 420 kts | 104° |
| 2026-04-15 14:42 | 51.19741 | 0.93839 | 21673 ft | 422 kts | 105° |
| 2026-04-15 14:42 | 51.19361 | 0.98492 | 22019 ft | 424 kts | 104° |
| 2026-04-15 14:42 | 51.18982 | 1.03174 | 22414 ft | 427 kts | 104° |
| 2026-04-15 14:42 | 51.18602 | 1.07878 | 22810 ft | 429 kts | 104° |
| 2026-04-15 14:43 | 51.18215 | 1.12615 | 23203 ft | 432 kts | 104° |
| 2026-04-15 14:43 | 51.17821 | 1.17369 | 23585 ft | 434 kts | 104° |
| 2026-04-15 14:43 | 51.17419 | 1.22148 | 23911 ft | 436 kts | 104° |
| 2026-04-15 14:43 | 51.17012 | 1.26951 | 24235 ft | 438 kts | 104° |
| 2026-04-15 14:44 | 51.16604 | 1.31772 | 24551 ft | 440 kts | 104° |
| 2026-04-15 14:44 | 51.16200 | 1.36621 | 24856 ft | 443 kts | 104° |
| 2026-04-15 14:44 | 51.15871 | 1.41518 | 25150 ft | 447 kts | 102° |
| 2026-04-15 14:44 | 51.15621 | 1.46470 | 25399 ft | 451 kts | 100° |
| 2026-04-15 14:45 | 51.15416 | 1.51468 | 25684 ft | 454 kts | 100° |
| 2026-04-15 14:45 | 51.15226 | 1.56494 | 25987 ft | 456 kts | 100° |
| 2026-04-15 14:45 | 51.15026 | 1.61545 | 26280 ft | 457 kts | 100° |
| 2026-04-15 14:45 | 51.14803 | 1.66610 | 26569 ft | 459 kts | 101° |
| 2026-04-15 14:46 | 51.14556 | 1.71702 | 26859 ft | 461 kts | 101° |
| 2026-04-15 14:46 | 51.14295 | 1.76796 | 27143 ft | 463 kts | 101° |
| 2026-04-15 14:46 | 51.14028 | 1.81914 | 27419 ft | 465 kts | 101° |
| 2026-04-15 14:46 | 51.13757 | 1.87053 | 27694 ft | 467 kts | 101° |
| 2026-04-15 14:47 | 51.13484 | 1.92209 | 27914 ft | 469 kts | 101° |
| 2026-04-15 14:47 | 51.13208 | 1.97392 | 28159 ft | 471 kts | 101° |
| 2026-04-15 14:47 | 51.12933 | 2.02599 | 28408 ft | 473 kts | 101° |
| 2026-04-15 14:47 | 51.12661 | 2.07758 | 28655 ft | 475 kts | 101° |
| 2026-04-15 14:48 | 51.12382 | 2.13001 | 28906 ft | 477 kts | 101° |
| 2026-04-15 14:48 | 51.12100 | 2.18268 | 29149 ft | 478 kts | 101° |
| 2026-04-15 14:48 | 51.11816 | 2.23554 | 29380 ft | 480 kts | 101° |
| 2026-04-15 14:48 | 51.11528 | 2.28862 | 29626 ft | 482 kts | 101° |
| 2026-04-15 14:49 | 51.11235 | 2.34188 | 29886 ft | 483 kts | 101° |
| 2026-04-15 14:49 | 51.10940 | 2.39523 | 30184 ft | 483 kts | 101° |
| 2026-04-15 14:49 | 51.10642 | 2.44837 | 30455 ft | 483 kts | 101° |
| 2026-04-15 14:49 | 51.10340 | 2.50159 | 30736 ft | 482 kts | 101° |
| 2026-04-15 14:50 | 51.10035 | 2.55468 | 31033 ft | 481 kts | 101° |
| 2026-04-15 14:50 | 51.09728 | 2.60772 | 31334 ft | 481 kts | 101° |
| 2026-04-15 14:50 | 51.09267 | 2.65998 | 31638 ft | 474 kts | 109° |
| 2026-04-15 14:50 | 51.08426 | 2.71030 | 31926 ft | 469 kts | 112° |
| 2026-04-15 14:51 | 51.07523 | 2.76009 | 32219 ft | 468 kts | 112° |
| 2026-04-15 14:51 | 51.06619 | 2.80979 | 32516 ft | 468 kts | 113° |
| 2026-04-15 14:51 | 51.05714 | 2.85941 | 32816 ft | 467 kts | 112° |
| 2026-04-15 14:51 | 51.04808 | 2.90906 | 33066 ft | 469 kts | 112° |
| 2026-04-15 14:52 | 51.03900 | 2.95886 | 33346 ft | 468 kts | 112° |
| 2026-04-15 14:52 | 51.02991 | 3.00856 | 33631 ft | 468 kts | 112° |
| 2026-04-15 14:52 | 51.02083 | 3.05814 | 33905 ft | 467 kts | 112° |
| 2026-04-15 14:52 | 51.01171 | 3.10776 | 34177 ft | 467 kts | 112° |
| 2026-04-15 14:53 | 51.00260 | 3.15714 | 34414 ft | 466 kts | 113° |
| 2026-04-15 14:53 | 50.99358 | 3.20583 | 34637 ft | 466 kts | 113° |
| 2026-04-15 14:53 | 50.98441 | 3.25517 | 34868 ft | 465 kts | 113° |
| 2026-04-15 14:53 | 50.97525 | 3.30433 | 35027 ft | 465 kts | 112° |
| 2026-04-15 14:54 | 50.96603 | 3.35354 | 35111 ft | 465 kts | 112° |
| 2026-04-15 14:54 | 50.94761 | 3.45185 | 35127 ft | 464 kts | 112° |
| 2026-04-15 14:55 | 50.92914 | 3.54985 | 35133 ft | 464 kts | 112° |
| 2026-04-15 14:55 | 50.91053 | 3.64774 | 35143 ft | 464 kts | 112° |
| 2026-04-15 14:56 | 50.89181 | 3.74554 | 35146 ft | 464 kts | 112° |
| 2026-04-15 14:56 | 50.87292 | 3.84322 | 35126 ft | 464 kts | 112° |
| 2026-04-15 14:57 | 50.85393 | 3.94096 | 35130 ft | 465 kts | 112° |
| 2026-04-15 14:57 | 50.83482 | 4.03878 | 35132 ft | 465 kts | 112° |
| 2026-04-15 14:58 | 50.81558 | 4.13671 | 35129 ft | 466 kts | 112° |
| 2026-04-15 14:58 | 50.79628 | 4.23440 | 35109 ft | 466 kts | 112° |
| 2026-04-15 14:59 | 50.77691 | 4.33209 | 35119 ft | 466 kts | 112° |
| 2026-04-15 14:59 | 50.75745 | 4.42989 | 35122 ft | 466 kts | 112° |
| 2026-04-15 15:00 | 50.73804 | 4.52703 | 35124 ft | 466 kts | 112° |
| 2026-04-15 15:00 | 50.71836 | 4.62460 | 35130 ft | 467 kts | 112° |
| 2026-04-15 15:01 | 50.69919 | 4.72245 | 35131 ft | 467 kts | 111° |
| 2026-04-15 15:01 | 50.68036 | 4.82068 | 35137 ft | 468 kts | 111° |
| 2026-04-15 15:02 | 50.66052 | 4.91841 | 35142 ft | 465 kts | 117° |
| 2026-04-15 15:02 | 50.63322 | 5.01040 | 35147 ft | 463 kts | 120° |
| 2026-04-15 15:03 | 50.60563 | 5.10216 | 35158 ft | 464 kts | 120° |
| 2026-04-15 15:03 | 50.57799 | 5.19397 | 35144 ft | 464 kts | 120° |
| 2026-04-15 15:04 | 50.55013 | 5.28573 | 35151 ft | 465 kts | 120° |
| 2026-04-15 15:04 | 50.52212 | 5.37770 | 35145 ft | 466 kts | 120° |
| 2026-04-15 15:05 | 50.49428 | 5.46891 | 35148 ft | 466 kts | 120° |
| 2026-04-15 15:05 | 50.46612 | 5.56063 | 35158 ft | 466 kts | 120° |
| 2026-04-15 15:06 | 50.42371 | 5.69816 | 35152 ft | 467 kts | 119° |
| 2026-04-15 15:06 | 50.39529 | 5.78989 | 35157 ft | 468 kts | 119° |
| 2026-04-15 15:07 | 50.36678 | 5.88156 | 35160 ft | 468 kts | 119° |
| 2026-04-15 15:07 | 50.33825 | 5.97307 | 35160 ft | 468 kts | 119° |
| 2026-04-15 15:08 | 50.30965 | 6.06457 | 35159 ft | 468 kts | 118° |
| 2026-04-15 15:08 | 50.28086 | 6.15614 | 35165 ft | 469 kts | 118° |
| 2026-04-15 15:09 | 50.25197 | 6.24761 | 35165 ft | 469 kts | 119° |
| 2026-04-15 15:09 | 50.22316 | 6.33831 | 35166 ft | 469 kts | 119° |
| 2026-04-15 15:10 | 50.19424 | 6.42969 | 35167 ft | 470 kts | 116° |
| 2026-04-15 15:10 | 50.17469 | 6.52722 | 35153 ft | 472 kts | 105° |
| 2026-04-15 15:11 | 50.15860 | 6.62659 | 35165 ft | 473 kts | 105° |
| 2026-04-15 15:11 | 50.14220 | 6.72594 | 35169 ft | 473 kts | 105° |
| 2026-04-15 15:12 | 50.12565 | 6.82521 | 35179 ft | 473 kts | 105° |
| 2026-04-15 15:12 | 50.10906 | 6.92460 | 35178 ft | 473 kts | 105° |
| 2026-04-15 15:13 | 50.09255 | 7.02385 | 35185 ft | 473 kts | 105° |
| 2026-04-15 15:13 | 50.07607 | 7.12239 | 35187 ft | 473 kts | 105° |
| 2026-04-15 15:14 | 50.05930 | 7.22157 | 35192 ft | 473 kts | 105° |
| 2026-04-15 15:14 | 50.04237 | 7.32053 | 35190 ft | 473 kts | 105° |
| 2026-04-15 15:15 | 50.02544 | 7.41947 | 35193 ft | 473 kts | 105° |
| 2026-04-15 15:15 | 50.00846 | 7.51826 | 35199 ft | 473 kts | 105° |
| 2026-04-15 15:16 | 49.99143 | 7.61695 | 35200 ft | 473 kts | 105° |
| 2026-04-15 15:16 | 49.97426 | 7.71556 | 35198 ft | 473 kts | 105° |
| 2026-04-15 15:17 | 49.95696 | 7.81417 | 35203 ft | 473 kts | 104° |
| 2026-04-15 15:17 | 49.93965 | 7.91254 | 35212 ft | 472 kts | 104° |
| 2026-04-15 15:18 | 49.92233 | 8.01074 | 35211 ft | 472 kts | 104° |
| 2026-04-15 15:18 | 49.90488 | 8.10835 | 35206 ft | 472 kts | 105° |
| 2026-04-15 15:19 | 49.88729 | 8.20632 | 35203 ft | 471 kts | 104° |
| 2026-04-15 15:19 | 49.86971 | 8.30427 | 35202 ft | 471 kts | 104° |
| 2026-04-15 15:20 | 49.84968 | 8.40102 | 35189 ft | 471 kts | 114° |
| 2026-04-15 15:20 | 49.81457 | 8.48582 | 35187 ft | 471 kts | 129° |
| 2026-04-15 15:21 | 49.77356 | 8.56500 | 35183 ft | 472 kts | 128° |
| 2026-04-15 15:21 | 49.73271 | 8.64447 | 35184 ft | 472 kts | 128° |
| 2026-04-15 15:22 | 49.69174 | 8.72371 | 35184 ft | 472 kts | 129° |
| 2026-04-15 15:22 | 49.65062 | 8.80281 | 35185 ft | 472 kts | 129° |
| 2026-04-15 15:23 | 49.60944 | 8.88174 | 35179 ft | 472 kts | 129° |
| 2026-04-15 15:23 | 49.56824 | 8.96056 | 35183 ft | 472 kts | 129° |
| 2026-04-15 15:24 | 49.52704 | 9.03928 | 35188 ft | 472 kts | 128° |
| 2026-04-15 15:24 | 49.49270 | 9.10463 | 35181 ft | 472 kts | 128° |
| 2026-04-15 15:25 | 49.45329 | 9.18532 | 35186 ft | 472 kts | 122° |
| 2026-04-15 15:25 | 49.41163 | 9.28348 | 35187 ft | 472 kts | 122° |
| 2026-04-15 15:26 | 49.38152 | 9.35418 | 35192 ft | 472 kts | 122° |
| 2026-04-15 15:26 | 49.34549 | 9.43846 | 35197 ft | 473 kts | 121° |